< < Back
Terminal Aerodrome Forecast


Current Version              Previous Versions:   1  2  3  4  5  6  7  8  9  

Terminal Aerodrome Forecast

596
FTUS42 KFFC 012233 AAB
TAFATL
TAF AMD
KATL 012233Z 0123/0224 33008KT P6SM FEW080
     FM020000 28004KT P6SM FEW250
     FM021400 28005KT P6SM FEW040
     FM021800 26008KT P6SM SCT060=



Latest METAR

549
SAUS70 KWBC 020500 RRA
MTRATL
METAR KATL 020452Z 30004KT 10SM FEW080 27/16 A3003 RMK AO2 SLP155
T02720161 403440239


USA.gov is the U.S. government's official web portal to all federal, state and local government web resources and services.